sensor_id;sensor_type;location;lat;lon;timestamp;temperature;humidity
45549;DHT22;31270;48.328;10.096;2023-03-14T00:01:19;9.40;99.90
45549;DHT22;31270;48.328;10.096;2023-03-14T00:03:48;9.40;99.90
45549;DHT22;31270;48.328;10.096;2023-03-14T00:06:14;9.30;99.90
45549;DHT22;31270;48.328;10.096;2023-03-14T00:08:40;9.30;99.90
45549;DHT22;31270;48.328;10.096;2023-03-14T00:11:09;9.20;99.90
45549;DHT22;31270;48.328;10.096;2023-03-14T00:13:35;9.20;99.90
45549;DHT22;31270;48.328;10.096;2023-03-14T00:16:05;9.20;99.90
45549;DHT22;31270;48.328;10.096;2023-03-14T00:18:32;9.10;99.90
45549;DHT22;31270;48.328;10.096;2023-03-14T00:20:59;9.00;99.90
45549;DHT22;31270;48.328;10.096;2023-03-14T00:23:24;9.00;99.90
45549;DHT22;31270;48.328;10.096;2023-03-14T00:25:50;9.00;99.90
45549;DHT22;31270;48.328;10.096;2023-03-14T00:28:15;8.90;99.90
45549;DHT22;31270;48.328;10.096;2023-03-14T00:30:41;8.80;99.90
45549;DHT22;31270;48.328;10.096;2023-03-14T00:33:07;8.70;99.90
45549;DHT22;31270;48.328;10.096;2023-03-14T00:35:32;8.70;99.90
45549;DHT22;31270;48.328;10.096;2023-03-14T00:37:58;8.70;99.90
45549;DHT22;31270;48.328;10.096;2023-03-14T00:40:24;8.60;99.90
45549;DHT22;31270;48.328;10.096;2023-03-14T00:42:49;8.60;99.90
45549;DHT22;31270;48.328;10.096;2023-03-14T00:45:15;8.50;99.90
45549;DHT22;31270;48.328;10.096;2023-03-14T00:47:40;8.50;99.90
45549;DHT22;31270;48.328;10.096;2023-03-14T00:50:11;8.40;99.90
45549;DHT22;31270;48.328;10.096;2023-03-14T00:52:37;8.40;99.90
45549;DHT22;31270;48.328;10.096;2023-03-14T00:55:03;8.40;99.90
45549;DHT22;31270;48.328;10.096;2023-03-14T00:57:29;8.40;99.90
45549;DHT22;31270;48.328;10.096;2023-03-14T00:59:55;8.40;99.90
45549;DHT22;31270;48.328;10.096;2023-03-14T01:02:21;8.40;99.90
45549;DHT22;31270;48.328;10.096;2023-03-14T01:04:49;8.40;99.90
45549;DHT22;31270;48.328;10.096;2023-03-14T01:07:16;8.30;99.90
45549;DHT22;31270;48.328;10.096;2023-03-14T01:09:41;8.30;99.90
45549;DHT22;31270;48.328;10.096;2023-03-14T01:12:07;8.30;99.90
45549;DHT22;31270;48.328;10.096;2023-03-14T01:14:33;8.20;99.90
45549;DHT22;31270;48.328;10.096;2023-03-14T01:16:58;8.20;99.90
45549;DHT22;31270;48.328;10.096;2023-03-14T01:19:29;8.20;99.90
45549;DHT22;31270;48.328;10.096;2023-03-14T01:21:55;8.20;99.90
45549;DHT22;31270;48.328;10.096;2023-03-14T01:24:20;8.10;99.90
45549;DHT22;31270;48.328;10.096;2023-03-14T01:26:46;8.20;99.90
45549;DHT22;31270;48.328;10.096;2023-03-14T01:29:12;8.20;99.90
45549;DHT22;31270;48.328;10.096;2023-03-14T01:31:37;8.20;99.90
45549;DHT22;31270;48.328;10.096;2023-03-14T01:34:03;8.20;99.90
45549;DHT22;31270;48.328;10.096;2023-03-14T01:36:29;8.20;99.90
45549;DHT22;31270;48.328;10.096;2023-03-14T01:38:54;8.20;99.90
45549;DHT22;31270;48.328;10.096;2023-03-14T01:41:22;8.40;99.90
45549;DHT22;31270;48.328;10.096;2023-03-14T01:43:49;8.20;99.90
45549;DHT22;31270;48.328;10.096;2023-03-14T01:46:19;8.20;99.90
45549;DHT22;31270;48.328;10.096;2023-03-14T01:51:22;8.20;99.90
45549;DHT22;31270;48.328;10.096;2023-03-14T01:53:49;8.20;99.90
45549;DHT22;31270;48.328;10.096;2023-03-14T01:56:16;8.20;99.90
45549;DHT22;31270;48.328;10.096;2023-03-14T01:58:46;8.20;99.90
45549;DHT22;31270;48.328;10.096;2023-03-14T02:01:16;8.20;99.90
45549;DHT22;31270;48.328;10.096;2023-03-14T02:04:09;8.20;99.90
45549;DHT22;31270;48.328;10.096;2023-03-14T02:06:47;8.20;99.90
45549;DHT22;31270;48.328;10.096;2023-03-14T02:09:14;8.20;99.90
45549;DHT22;31270;48.328;10.096;2023-03-14T02:11:40;8.20;99.90
45549;DHT22;31270;48.328;10.096;2023-03-14T02:14:07;8.20;99.90
45549;DHT22;31270;48.328;10.096;2023-03-14T02:16:38;8.20;99.90
45549;DHT22;31270;48.328;10.096;2023-03-14T02:19:05;8.10;99.90
45549;DHT22;31270;48.328;10.096;2023-03-14T02:24:16;8.10;99.90
45549;DHT22;31270;48.328;10.096;2023-03-14T02:27:02;8.10;99.90
45549;DHT22;31270;48.328;10.096;2023-03-14T02:29:28;8.10;99.90
45549;DHT22;31270;48.328;10.096;2023-03-14T02:31:54;8.10;99.90
45549;DHT22;31270;48.328;10.096;2023-03-14T02:34:20;8.10;99.90
45549;DHT22;31270;48.328;10.096;2023-03-14T02:36:46;8.00;99.90
45549;DHT22;31270;48.328;10.096;2023-03-14T02:39:21;8.00;99.90
45549;DHT22;31270;48.328;10.096;2023-03-14T02:41:48;8.00;99.90
45549;DHT22;31270;48.328;10.096;2023-03-14T02:44:14;8.00;99.90
45549;DHT22;31270;48.328;10.096;2023-03-14T02:46:40;8.00;99.90
45549;DHT22;31270;48.328;10.096;2023-03-14T02:49:12;7.90;99.90
45549;DHT22;31270;48.328;10.096;2023-03-14T02:51:40;7.90;99.90
45549;DHT22;31270;48.328;10.096;2023-03-14T02:54:06;8.20;99.90
45549;DHT22;31270;48.328;10.096;2023-03-14T02:56:32;7.90;99.90
45549;DHT22;31270;48.328;10.096;2023-03-14T02:58:58;7.90;99.90
45549;DHT22;31270;48.328;10.096;2023-03-14T03:01:24;7.90;99.90
45549;DHT22;31270;48.328;10.096;2023-03-14T03:03:49;7.90;99.90
45549;DHT22;31270;48.328;10.096;2023-03-14T03:06:15;7.90;99.90
45549;DHT22;31270;48.328;10.096;2023-03-14T03:08:41;7.90;99.90
45549;DHT22;31270;48.328;10.096;2023-03-14T03:11:07;7.90;99.90
45549;DHT22;31270;48.328;10.096;2023-03-14T03:13:32;7.90;99.90
45549;DHT22;31270;48.328;10.096;2023-03-14T03:15:58;7.80;99.90
45549;DHT22;31270;48.328;10.096;2023-03-14T03:18:24;7.80;99.90
45549;DHT22;31270;48.328;10.096;2023-03-14T03:20:49;7.80;99.90
45549;DHT22;31270;48.328;10.096;2023-03-14T03:23:15;7.80;99.90
45549;DHT22;31270;48.328;10.096;2023-03-14T03:25:41;7.80;99.90
45549;DHT22;31270;48.328;10.096;2023-03-14T03:28:07;7.80;99.90
45549;DHT22;31270;48.328;10.096;2023-03-14T03:30:37;7.80;99.90
45549;DHT22;31270;48.328;10.096;2023-03-14T03:33:03;7.70;99.90
45549;DHT22;31270;48.328;10.096;2023-03-14T03:35:29;7.70;99.90
45549;DHT22;31270;48.328;10.096;2023-03-14T03:37:54;7.70;99.90
45549;DHT22;31270;48.328;10.096;2023-03-14T03:40:20;7.70;99.90
45549;DHT22;31270;48.328;10.096;2023-03-14T03:42:46;7.70;99.90
45549;DHT22;31270;48.328;10.096;2023-03-14T03:45:12;7.70;99.90
45549;DHT22;31270;48.328;10.096;2023-03-14T03:47:38;7.70;99.90
45549;DHT22;31270;48.328;10.096;2023-03-14T03:50:04;7.60;99.90
45549;DHT22;31270;48.328;10.096;2023-03-14T03:52:30;7.60;99.90
45549;DHT22;31270;48.328;10.096;2023-03-14T03:54:55;7.60;99.90
45549;DHT22;31270;48.328;10.096;2023-03-14T03:57:21;7.60;99.90
45549;DHT22;31270;48.328;10.096;2023-03-14T03:59:47;7.60;99.90
45549;DHT22;31270;48.328;10.096;2023-03-14T04:02:12;7.60;99.90
45549;DHT22;31270;48.328;10.096;2023-03-14T04:04:38;7.60;99.90
45549;DHT22;31270;48.328;10.096;2023-03-14T04:07:04;7.60;99.90
45549;DHT22;31270;48.328;10.096;2023-03-14T04:09:31;7.50;99.90
45549;DHT22;31270;48.328;10.096;2023-03-14T04:11:56;7.50;99.90
45549;DHT22;31270;48.328;10.096;2023-03-14T04:14:23;7.60;99.90
45549;DHT22;31270;48.328;10.096;2023-03-14T04:16:48;7.50;99.90
45549;DHT22;31270;48.328;10.096;2023-03-14T04:19:14;7.50;99.90
45549;DHT22;31270;48.328;10.096;2023-03-14T04:21:40;7.60;99.90
45549;DHT22;31270;48.328;10.096;2023-03-14T04:24:10;7.50;99.90
45549;DHT22;31270;48.328;10.096;2023-03-14T04:26:36;7.60;99.90
45549;DHT22;31270;48.328;10.096;2023-03-14T04:29:01;7.50;99.90
45549;DHT22;31270;48.328;10.096;2023-03-14T04:31:27;7.60;99.90
45549;DHT22;31270;48.328;10.096;2023-03-14T04:33:53;7.50;99.90
45549;DHT22;31270;48.328;10.096;2023-03-14T04:36:19;7.40;99.90
45549;DHT22;31270;48.328;10.096;2023-03-14T04:38:45;7.40;99.90
45549;DHT22;31270;48.328;10.096;2023-03-14T04:41:10;7.40;99.90
45549;DHT22;31270;48.328;10.096;2023-03-14T04:43:36;7.40;99.90
45549;DHT22;31270;48.328;10.096;2023-03-14T04:46:02;7.40;99.90
45549;DHT22;31270;48.328;10.096;2023-03-14T04:48:28;7.40;99.90
45549;DHT22;31270;48.328;10.096;2023-03-14T04:50:54;7.40;99.90
45549;DHT22;31270;48.328;10.096;2023-03-14T04:53:20;7.40;99.90
45549;DHT22;31270;48.328;10.096;2023-03-14T04:55:53;7.40;99.90
45549;DHT22;31270;48.328;10.096;2023-03-14T04:58:19;7.40;99.90
45549;DHT22;31270;48.328;10.096;2023-03-14T05:00:46;7.40;99.90
45549;DHT22;31270;48.328;10.096;2023-03-14T05:03:14;7.40;99.90
45549;DHT22;31270;48.328;10.096;2023-03-14T05:05:39;7.40;99.90
45549;DHT22;31270;48.328;10.096;2023-03-14T05:08:05;7.40;99.90
45549;DHT22;31270;48.328;10.096;2023-03-14T05:10:30;7.40;99.90
45549;DHT22;31270;48.328;10.096;2023-03-14T05:12:56;7.40;99.90
45549;DHT22;31270;48.328;10.096;2023-03-14T05:15:22;7.40;99.90
45549;DHT22;31270;48.328;10.096;2023-03-14T05:17:47;7.30;99.90
45549;DHT22;31270;48.328;10.096;2023-03-14T05:20:14;7.30;99.90
45549;DHT22;31270;48.328;10.096;2023-03-14T05:22:42;7.30;99.90
45549;DHT22;31270;48.328;10.096;2023-03-14T05:25:08;7.40;99.90
45549;DHT22;31270;48.328;10.096;2023-03-14T05:27:34;7.40;99.90
45549;DHT22;31270;48.328;10.096;2023-03-14T05:30:02;7.40;99.90
45549;DHT22;31270;48.328;10.096;2023-03-14T05:32:28;7.40;99.90
45549;DHT22;31270;48.328;10.096;2023-03-14T05:34:54;7.30;99.90
45549;DHT22;31270;48.328;10.096;2023-03-14T05:37:23;7.30;99.90
45549;DHT22;31270;48.328;10.096;2023-03-14T05:39:49;7.30;99.90
45549;DHT22;31270;48.328;10.096;2023-03-14T05:42:15;7.30;99.90
45549;DHT22;31270;48.328;10.096;2023-03-14T05:44:41;7.30;99.90
45549;DHT22;31270;48.328;10.096;2023-03-14T05:47:07;7.30;99.90
45549;DHT22;31270;48.328;10.096;2023-03-14T05:49:32;7.30;99.90
45549;DHT22;31270;48.328;10.096;2023-03-14T05:51:58;7.30;99.90
45549;DHT22;31270;48.328;10.096;2023-03-14T05:54:23;7.30;99.90
45549;DHT22;31270;48.328;10.096;2023-03-14T05:56:49;7.30;99.90
45549;DHT22;31270;48.328;10.096;2023-03-14T05:59:15;7.30;99.90
45549;DHT22;31270;48.328;10.096;2023-03-14T06:01:40;7.30;99.90
45549;DHT22;31270;48.328;10.096;2023-03-14T06:04:06;7.30;99.90
45549;DHT22;31270;48.328;10.096;2023-03-14T06:06:31;7.30;99.90
45549;DHT22;31270;48.328;10.096;2023-03-14T06:08:58;7.30;99.90
45549;DHT22;31270;48.328;10.096;2023-03-14T06:11:24;7.30;99.90
45549;DHT22;31270;48.328;10.096;2023-03-14T06:13:50;7.30;99.90
45549;DHT22;31270;48.328;10.096;2023-03-14T06:16:16;7.40;99.90
45549;DHT22;31270;48.328;10.096;2023-03-14T06:18:41;7.30;99.90
45549;DHT22;31270;48.328;10.096;2023-03-14T06:21:07;7.30;99.90
45549;DHT22;31270;48.328;10.096;2023-03-14T06:23:33;7.30;99.90
45549;DHT22;31270;48.328;10.096;2023-03-14T06:25:59;7.30;99.90
45549;DHT22;31270;48.328;10.096;2023-03-14T06:28:25;7.30;99.90
45549;DHT22;31270;48.328;10.096;2023-03-14T06:30:50;7.40;99.90
45549;DHT22;31270;48.328;10.096;2023-03-14T06:33:16;7.40;99.90
45549;DHT22;31270;48.328;10.096;2023-03-14T06:35:41;7.40;99.90
45549;DHT22;31270;48.328;10.096;2023-03-14T06:38:07;7.40;99.90
45549;DHT22;31270;48.328;10.096;2023-03-14T06:40:33;7.40;99.90
45549;DHT22;31270;48.328;10.096;2023-03-14T06:42:58;7.40;99.90
45549;DHT22;31270;48.328;10.096;2023-03-14T06:45:24;7.40;99.90
45549;DHT22;31270;48.328;10.096;2023-03-14T06:47:49;7.50;99.90
45549;DHT22;31270;48.328;10.096;2023-03-14T06:50:15;7.40;99.90
45549;DHT22;31270;48.328;10.096;2023-03-14T06:52:41;7.50;99.90
45549;DHT22;31270;48.328;10.096;2023-03-14T06:55:11;7.50;99.90
45549;DHT22;31270;48.328;10.096;2023-03-14T06:57:37;7.60;99.90
45549;DHT22;31270;48.328;10.096;2023-03-14T07:00:04;7.60;99.90
45549;DHT22;31270;48.328;10.096;2023-03-14T07:02:30;7.60;99.90
45549;DHT22;31270;48.328;10.096;2023-03-14T07:04:56;7.60;99.90
45549;DHT22;31270;48.328;10.096;2023-03-14T07:07:21;7.70;99.90
45549;DHT22;31270;48.328;10.096;2023-03-14T07:09:47;7.60;99.90
45549;DHT22;31270;48.328;10.096;2023-03-14T07:12:13;7.70;99.90
45549;DHT22;31270;48.328;10.096;2023-03-14T07:14:38;7.70;99.90
45549;DHT22;31270;48.328;10.096;2023-03-14T07:17:04;7.80;99.90
45549;DHT22;31270;48.328;10.096;2023-03-14T07:19:29;7.80;99.90
45549;DHT22;31270;48.328;10.096;2023-03-14T07:21:55;7.80;99.90
45549;DHT22;31270;48.328;10.096;2023-03-14T07:24:21;7.80;99.90
45549;DHT22;31270;48.328;10.096;2023-03-14T07:26:47;7.90;99.90
45549;DHT22;31270;48.328;10.096;2023-03-14T07:29:12;7.90;99.90
45549;DHT22;31270;48.328;10.096;2023-03-14T07:31:38;8.00;99.90
45549;DHT22;31270;48.328;10.096;2023-03-14T07:34:04;8.00;99.90
45549;DHT22;31270;48.328;10.096;2023-03-14T07:36:29;8.10;99.90
45549;DHT22;31270;48.328;10.096;2023-03-14T07:38:55;8.10;99.90
45549;DHT22;31270;48.328;10.096;2023-03-14T07:41:20;8.10;99.90
45549;DHT22;31270;48.328;10.096;2023-03-14T07:43:47;8.10;99.90
45549;DHT22;31270;48.328;10.096;2023-03-14T07:46:12;8.20;99.90
45549;DHT22;31270;48.328;10.096;2023-03-14T07:48:38;8.20;99.90
45549;DHT22;31270;48.328;10.096;2023-03-14T07:51:04;8.20;99.90
45549;DHT22;31270;48.328;10.096;2023-03-14T07:53:29;8.30;99.90
45549;DHT22;31270;48.328;10.096;2023-03-14T07:55:55;8.40;99.90
45549;DHT22;31270;48.328;10.096;2023-03-14T07:58:21;8.40;99.90
45549;DHT22;31270;48.328;10.096;2023-03-14T08:00:52;8.50;99.90
45549;DHT22;31270;48.328;10.096;2023-03-14T08:03:19;8.50;99.90
45549;DHT22;31270;48.328;10.096;2023-03-14T08:05:49;8.60;99.90
45549;DHT22;31270;48.328;10.096;2023-03-14T08:08:16;8.70;99.90
45549;DHT22;31270;48.328;10.096;2023-03-14T08:10:42;8.80;99.90
45549;DHT22;31270;48.328;10.096;2023-03-14T08:13:09;8.90;99.90
45549;DHT22;31270;48.328;10.096;2023-03-14T08:15:35;8.90;99.90
45549;DHT22;31270;48.328;10.096;2023-03-14T08:18:00;8.90;99.90
45549;DHT22;31270;48.328;10.096;2023-03-14T08:20:30;9.10;99.90
45549;DHT22;31270;48.328;10.096;2023-03-14T08:23:15;9.10;99.90
45549;DHT22;31270;48.328;10.096;2023-03-14T08:25:44;9.10;99.90
45549;DHT22;31270;48.328;10.096;2023-03-14T08:28:09;9.10;99.90
45549;DHT22;31270;48.328;10.096;2023-03-14T08:30:35;9.30;99.90
45549;DHT22;31270;48.328;10.096;2023-03-14T08:33:00;9.30;99.90
45549;DHT22;31270;48.328;10.096;2023-03-14T08:35:27;9.50;99.90
45549;DHT22;31270;48.328;10.096;2023-03-14T08:37:52;9.60;99.90
45549;DHT22;31270;48.328;10.096;2023-03-14T08:40:18;9.70;99.90
45549;DHT22;31270;48.328;10.096;2023-03-14T08:42:45;9.70;99.90
45549;DHT22;31270;48.328;10.096;2023-03-14T08:45:13;9.80;99.90
45549;DHT22;31270;48.328;10.096;2023-03-14T08:47:39;9.80;99.90
45549;DHT22;31270;48.328;10.096;2023-03-14T08:50:06;9.80;99.90
45549;DHT22;31270;48.328;10.096;2023-03-14T08:52:32;9.90;99.90
45549;DHT22;31270;48.328;10.096;2023-03-14T08:54:58;9.90;99.90
45549;DHT22;31270;48.328;10.096;2023-03-14T08:57:24;9.90;99.90
45549;DHT22;31270;48.328;10.096;2023-03-14T08:59:54;10.00;99.90
45549;DHT22;31270;48.328;10.096;2023-03-14T09:02:21;10.00;99.90
45549;DHT22;31270;48.328;10.096;2023-03-14T09:04:46;10.10;99.90
45549;DHT22;31270;48.328;10.096;2023-03-14T09:07:12;10.10;99.90
45549;DHT22;31270;48.328;10.096;2023-03-14T09:09:38;10.10;99.90
45549;DHT22;31270;48.328;10.096;2023-03-14T09:12:04;10.20;99.90
45549;DHT22;31270;48.328;10.096;2023-03-14T09:14:30;10.20;99.90
45549;DHT22;31270;48.328;10.096;2023-03-14T09:16:57;10.30;99.90
45549;DHT22;31270;48.328;10.096;2023-03-14T09:19:23;10.40;99.90
45549;DHT22;31270;48.328;10.096;2023-03-14T09:21:48;10.50;99.90
45549;DHT22;31270;48.328;10.096;2023-03-14T09:24:15;10.70;99.90
45549;DHT22;31270;48.328;10.096;2023-03-14T09:26:41;10.80;99.90
45549;DHT22;31270;48.328;10.096;2023-03-14T09:29:06;10.90;99.90
45549;DHT22;31270;48.328;10.096;2023-03-14T09:31:33;11.10;99.90
45549;DHT22;31270;48.328;10.096;2023-03-14T09:33:58;11.10;99.90
45549;DHT22;31270;48.328;10.096;2023-03-14T09:36:24;11.40;99.90
45549;DHT22;31270;48.328;10.096;2023-03-14T09:38:49;11.60;99.90
45549;DHT22;31270;48.328;10.096;2023-03-14T09:41:27;11.70;99.90
45549;DHT22;31270;48.328;10.096;2023-03-14T09:46:50;11.90;99.90
45549;DHT22;31270;48.328;10.096;2023-03-14T09:49:24;11.90;99.90
45549;DHT22;31270;48.328;10.096;2023-03-14T09:51:54;12.00;99.90
45549;DHT22;31270;48.328;10.096;2023-03-14T09:57:20;11.90;99.90
45549;DHT22;31270;48.328;10.096;2023-03-14T09:59:48;11.90;99.90
45549;DHT22;31270;48.328;10.096;2023-03-14T10:02:20;11.70;99.90
45549;DHT22;31270;48.328;10.096;2023-03-14T10:04:47;11.60;99.90
45549;DHT22;31270;48.328;10.096;2023-03-14T10:07:20;11.50;99.90
45549;DHT22;31270;48.328;10.096;2023-03-14T10:09:50;11.70;99.90
45549;DHT22;31270;48.328;10.096;2023-03-14T10:12:17;11.90;99.90
45549;DHT22;31270;48.328;10.096;2023-03-14T10:14:51;12.10;99.90
45549;DHT22;31270;48.328;10.096;2023-03-14T10:17:19;12.10;99.90
45549;DHT22;31270;48.328;10.096;2023-03-14T10:19:55;12.10;99.90
45549;DHT22;31270;48.328;10.096;2023-03-14T10:22:23;12.00;99.90
45549;DHT22;31270;48.328;10.096;2023-03-14T10:24:53;12.00;99.90
45549;DHT22;31270;48.328;10.096;2023-03-14T10:27:22;12.00;99.90
45549;DHT22;31270;48.328;10.096;2023-03-14T10:30:00;12.00;99.90
45549;DHT22;31270;48.328;10.096;2023-03-14T10:32:36;12.20;99.90
45549;DHT22;31270;48.328;10.096;2023-03-14T10:40:24;12.30;99.90
45549;DHT22;31270;48.328;10.096;2023-03-14T10:42:51;12.30;99.90
45549;DHT22;31270;48.328;10.096;2023-03-14T10:45:41;12.30;99.90
45549;DHT22;31270;48.328;10.096;2023-03-14T10:50:59;12.70;99.90
45549;DHT22;31270;48.328;10.096;2023-03-14T10:53:27;12.60;99.90
45549;DHT22;31270;48.328;10.096;2023-03-14T10:56:02;12.70;99.90
45549;DHT22;31270;48.328;10.096;2023-03-14T10:58:30;13.00;99.90
45549;DHT22;31270;48.328;10.096;2023-03-14T11:03:56;13.00;99.90
45549;DHT22;31270;48.328;10.096;2023-03-14T11:06:32;12.80;99.90
45549;DHT22;31270;48.328;10.096;2023-03-14T11:09:36;13.10;99.90
45549;DHT22;31270;48.328;10.096;2023-03-14T11:18:21;13.30;99.90
45549;DHT22;31270;48.328;10.096;2023-03-14T11:26:48;13.30;99.90
45549;DHT22;31270;48.328;10.096;2023-03-14T11:29:26;13.40;99.90
45549;DHT22;31270;48.328;10.096;2023-03-14T11:31:56;13.40;99.90
45549;DHT22;31270;48.328;10.096;2023-03-14T11:34:53;13.50;99.90
45549;DHT22;31270;48.328;10.096;2023-03-14T11:37:29;13.30;99.90
45549;DHT22;31270;48.328;10.096;2023-03-14T11:40:18;13.40;99.90
45549;DHT22;31270;48.328;10.096;2023-03-14T11:42:52;13.20;99.90
45549;DHT22;31270;48.328;10.096;2023-03-14T11:45:27;13.20;99.90
45549;DHT22;31270;48.328;10.096;2023-03-14T11:50:39;12.80;99.90
45549;DHT22;31270;48.328;10.096;2023-03-14T11:53:12;12.70;99.90
45549;DHT22;31270;48.328;10.096;2023-03-14T11:55:40;12.60;99.90
45549;DHT22;31270;48.328;10.096;2023-03-14T11:58:20;12.60;99.90
45549;DHT22;31270;48.328;10.096;2023-03-14T12:00:47;12.30;99.90
45549;DHT22;31270;48.328;10.096;2023-03-14T12:03:35;12.10;99.90
45549;DHT22;31270;48.328;10.096;2023-03-14T12:08:42;11.60;99.90
45549;DHT22;31270;48.328;10.096;2023-03-14T12:14:02;11.50;99.90
45549;DHT22;31270;48.328;10.096;2023-03-14T12:16:38;11.40;99.90
45549;DHT22;31270;48.328;10.096;2023-03-14T12:21:53;11.20;99.90
45549;DHT22;31270;48.328;10.096;2023-03-14T12:24:23;11.10;99.90
45549;DHT22;31270;48.328;10.096;2023-03-14T12:26:56;11.10;99.90
45549;DHT22;31270;48.328;10.096;2023-03-14T12:29:22;11.10;99.90
45549;DHT22;31270;48.328;10.096;2023-03-14T12:31:50;10.90;99.90
45549;DHT22;31270;48.328;10.096;2023-03-14T12:34:41;10.80;99.90
45549;DHT22;31270;48.328;10.096;2023-03-14T12:37:19;10.70;99.90
45549;DHT22;31270;48.328;10.096;2023-03-14T12:40:01;10.70;99.90
45549;DHT22;31270;48.328;10.096;2023-03-14T12:45:33;10.40;99.90
45549;DHT22;31270;48.328;10.096;2023-03-14T12:48:22;10.20;99.90
45549;DHT22;31270;48.328;10.096;2023-03-14T12:58:54;9.90;99.90
45549;DHT22;31270;48.328;10.096;2023-03-14T13:01:23;9.80;99.90
45549;DHT22;31270;48.328;10.096;2023-03-14T13:03:55;9.80;99.90
45549;DHT22;31270;48.328;10.096;2023-03-14T13:06:53;9.70;99.90
45549;DHT22;31270;48.328;10.096;2023-03-14T13:14:30;9.80;99.90
45549;DHT22;31270;48.328;10.096;2023-03-14T13:16:59;9.80;99.90
45549;DHT22;31270;48.328;10.096;2023-03-14T13:19:30;9.70;99.90
45549;DHT22;31270;48.328;10.096;2023-03-14T13:22:03;9.70;99.90
45549;DHT22;31270;48.328;10.096;2023-03-14T13:24:29;9.70;99.90
45549;DHT22;31270;48.328;10.096;2023-03-14T13:26:56;9.70;99.90
45549;DHT22;31270;48.328;10.096;2023-03-14T13:29:28;9.60;99.90
45549;DHT22;31270;48.328;10.096;2023-03-14T13:32:02;9.40;99.90
45549;DHT22;31270;48.328;10.096;2023-03-14T13:34:37;9.20;99.90
45549;DHT22;31270;48.328;10.096;2023-03-14T13:37:05;9.20;99.90
45549;DHT22;31270;48.328;10.096;2023-03-14T13:39:30;9.10;99.90
45549;DHT22;31270;48.328;10.096;2023-03-14T13:41:59;8.90;99.90
45549;DHT22;31270;48.328;10.096;2023-03-14T13:44:31;8.80;99.90
45549;DHT22;31270;48.328;10.096;2023-03-14T13:46:58;8.50;99.90
45549;DHT22;31270;48.328;10.096;2023-03-14T13:49:25;8.20;99.90
45549;DHT22;31270;48.328;10.096;2023-03-14T13:51:51;8.00;99.90
45549;DHT22;31270;48.328;10.096;2023-03-14T13:54:19;7.90;99.90
45549;DHT22;31270;48.328;10.096;2023-03-14T13:56:45;7.90;99.90
45549;DHT22;31270;48.328;10.096;2023-03-14T13:59:29;7.90;99.90
45549;DHT22;31270;48.328;10.096;2023-03-14T14:01:56;7.90;99.90
45549;DHT22;31270;48.328;10.096;2023-03-14T14:04:24;7.80;99.90
45549;DHT22;31270;48.328;10.096;2023-03-14T14:06:57;7.80;99.90
45549;DHT22;31270;48.328;10.096;2023-03-14T14:09:38;7.90;99.90
45549;DHT22;31270;48.328;10.096;2023-03-14T14:12:07;8.00;99.90
45549;DHT22;31270;48.328;10.096;2023-03-14T14:14:47;8.10;99.90
45549;DHT22;31270;48.328;10.096;2023-03-14T14:17:24;8.20;99.90
45549;DHT22;31270;48.328;10.096;2023-03-14T14:19:52;8.30;99.90
45549;DHT22;31270;48.328;10.096;2023-03-14T14:22:19;8.40;99.90
45549;DHT22;31270;48.328;10.096;2023-03-14T14:24:45;8.50;99.90
45549;DHT22;31270;48.328;10.096;2023-03-14T14:27:23;8.50;99.90
45549;DHT22;31270;48.328;10.096;2023-03-14T14:30:00;8.40;99.90
45549;DHT22;31270;48.328;10.096;2023-03-14T14:32:26;8.40;99.90
45549;DHT22;31270;48.328;10.096;2023-03-14T14:37:26;8.50;99.90
45549;DHT22;31270;48.328;10.096;2023-03-14T14:39:56;8.50;99.90
45549;DHT22;31270;48.328;10.096;2023-03-14T14:42:26;8.60;99.90
45549;DHT22;31270;48.328;10.096;2023-03-14T14:44:53;8.50;99.90
45549;DHT22;31270;48.328;10.096;2023-03-14T14:47:21;8.50;99.90
45549;DHT22;31270;48.328;10.096;2023-03-14T14:49:51;8.40;99.90
45549;DHT22;31270;48.328;10.096;2023-03-14T14:52:41;8.40;99.90
45549;DHT22;31270;48.328;10.096;2023-03-14T14:55:18;8.50;99.90
45549;DHT22;31270;48.328;10.096;2023-03-14T14:57:54;8.40;99.90
45549;DHT22;31270;48.328;10.096;2023-03-14T15:00:24;8.30;99.90
45549;DHT22;31270;48.328;10.096;2023-03-14T15:02:55;8.20;99.90
45549;DHT22;31270;48.328;10.096;2023-03-14T15:05:26;8.20;99.90
45549;DHT22;31270;48.328;10.096;2023-03-14T15:07:52;8.10;99.90
45549;DHT22;31270;48.328;10.096;2023-03-14T15:10:20;8.00;99.90
45549;DHT22;31270;48.328;10.096;2023-03-14T15:12:46;7.90;99.90
45549;DHT22;31270;48.328;10.096;2023-03-14T15:15:15;7.90;99.90
45549;DHT22;31270;48.328;10.096;2023-03-14T15:17:42;7.90;99.90
45549;DHT22;31270;48.328;10.096;2023-03-14T15:20:15;7.90;99.90
45549;DHT22;31270;48.328;10.096;2023-03-14T15:22:41;8.00;99.90
45549;DHT22;31270;48.328;10.096;2023-03-14T15:25:07;8.00;99.90
45549;DHT22;31270;48.328;10.096;2023-03-14T15:27:34;7.90;99.90
45549;DHT22;31270;48.328;10.096;2023-03-14T15:30:00;7.90;99.90
45549;DHT22;31270;48.328;10.096;2023-03-14T15:32:26;8.00;99.90
45549;DHT22;31270;48.328;10.096;2023-03-14T15:34:54;7.90;99.90
45549;DHT22;31270;48.328;10.096;2023-03-14T15:37:20;7.90;99.90
45549;DHT22;31270;48.328;10.096;2023-03-14T15:39:47;7.80;99.90
45549;DHT22;31270;48.328;10.096;2023-03-14T15:42:12;7.80;99.90
45549;DHT22;31270;48.328;10.096;2023-03-14T15:44:38;7.60;99.90
45549;DHT22;31270;48.328;10.096;2023-03-14T15:47:05;7.40;99.90
45549;DHT22;31270;48.328;10.096;2023-03-14T15:49:31;7.30;99.90
45549;DHT22;31270;48.328;10.096;2023-03-14T15:51:57;7.20;99.90
45549;DHT22;31270;48.328;10.096;2023-03-14T15:54:23;7.10;99.90
45549;DHT22;31270;48.328;10.096;2023-03-14T15:56:49;7.10;99.90
45549;DHT22;31270;48.328;10.096;2023-03-14T15:59:17;7.00;99.90
45549;DHT22;31270;48.328;10.096;2023-03-14T16:01:42;7.10;99.90
45549;DHT22;31270;48.328;10.096;2023-03-14T16:04:08;7.00;99.90
45549;DHT22;31270;48.328;10.096;2023-03-14T16:06:33;7.00;99.90
45549;DHT22;31270;48.328;10.096;2023-03-14T16:09:00;6.90;99.90
45549;DHT22;31270;48.328;10.096;2023-03-14T16:11:26;7.00;99.90
45549;DHT22;31270;48.328;10.096;2023-03-14T16:13:51;6.90;99.90
45549;DHT22;31270;48.328;10.096;2023-03-14T16:16:17;6.90;99.90
45549;DHT22;31270;48.328;10.096;2023-03-14T16:18:43;7.00;99.90
45549;DHT22;31270;48.328;10.096;2023-03-14T16:21:14;7.00;99.90
45549;DHT22;31270;48.328;10.096;2023-03-14T16:23:40;7.00;99.90
45549;DHT22;31270;48.328;10.096;2023-03-14T16:26:07;7.00;99.90
45549;DHT22;31270;48.328;10.096;2023-03-14T16:28:33;7.10;99.90
45549;DHT22;31270;48.328;10.096;2023-03-14T16:31:08;7.10;99.90
45549;DHT22;31270;48.328;10.096;2023-03-14T16:33:34;7.00;99.90
45549;DHT22;31270;48.328;10.096;2023-03-14T16:36:02;7.00;99.90
45549;DHT22;31270;48.328;10.096;2023-03-14T16:38:31;7.00;99.90